Time;durP1;ratioP1;P1;durP2;ratioP2;P2;SDS_P1;SDS_P2;PMS_P1;PMS_P2;Temp;Humidity;BMP_temperature;BMP_pressure;BME280_temperature;BME280_humidity;BME280_pressure;Samples;Min_cycle;Max_cycle;Signal;HPM_P1;HPM_P2
2024/03/30 00:01:16;;;;;;;1.83;0.80;;;;;;;;;;5036398;28;20059;-66
2024/03/30 00:03:47;;;;;;;1.65;0.75;;;;;;;;;;5053707;28;20076;-68
2024/03/30 00:06:14;;;;;;;1.77;0.93;;;;;;;;;;5032752;28;22019;-66
2024/03/30 00:08:41;;;;;;;3.55;1.40;;;;;;;;;;5056123;28;20073;-66
2024/03/30 00:11:09;;;;;;;2.58;1.23;;;;;;;;;;5036056;28;21048;-66
2024/03/30 00:13:34;;;;;;;4.28;2.15;;;;;;;;;;5042301;28;20052;-66
2024/03/30 00:16:07;;;;;;;2.47;1.08;;;;;;;;;;5028970;28;20162;-66
2024/03/30 00:18:32;;;;;;;1.35;0.65;;;;;;;;;;5030151;28;20152;-66
2024/03/30 00:20:59;;;;;;;0.85;0.70;;;;;;;;;;5040773;28;20123;-65
2024/03/30 00:23:25;;;;;;;1.10;0.75;;;;;;;;;;5041936;28;20580;-65
2024/03/30 00:25:53;;;;;;;1.73;0.77;;;;;;;;;;5010506;28;20084;-66
2024/03/30 00:28:20;;;;;;;0.70;0.60;;;;;;;;;;5038166;28;20095;-66
2024/03/30 00:30:47;;;;;;;1.60;0.75;;;;;;;;;;5023551;28;20290;-66
2024/03/30 00:33:12;;;;;;;2.40;0.88;;;;;;;;;;5041265;28;20499;-66
2024/03/30 00:35:39;;;;;;;3.22;1.17;;;;;;;;;;5019304;28;20061;-66
2024/03/30 00:38:06;;;;;;;1.08;0.73;;;;;;;;;;5035242;28;20241;-66
2024/03/30 00:40:33;;;;;;;0.73;0.60;;;;;;;;;;5040356;28;20072;-65
2024/03/30 00:42:59;;;;;;;0.93;0.70;;;;;;;;;;5040302;28;20136;-67
2024/03/30 00:45:27;;;;;;;1.08;0.70;;;;;;;;;;5019748;28;20056;-67
2024/03/30 00:47:52;;;;;;;6.13;1.80;;;;;;;;;;5014752;28;20153;-66
2024/03/30 00:50:19;;;;;;;31.42;15.23;;;;;;;;;;5023808;28;20180;-66
2024/03/30 00:52:45;;;;;;;9.25;3.17;;;;;;;;;;5029129;28;20056;-67
2024/03/30 00:55:12;;;;;;;4.97;1.23;;;;;;;;;;5024901;28;20053;-66
2024/03/30 00:57:41;;;;;;;2.20;0.90;;;;;;;;;;5020777;28;20080;-66
2024/03/30 01:00:10;;;;;;;1.73;0.93;;;;;;;;;;5015837;28;20052;-66
2024/03/30 01:02:38;;;;;;;2.50;0.90;;;;;;;;;;5042413;28;20071;-67
2024/03/30 01:05:05;;;;;;;1.90;0.80;;;;;;;;;;5033181;28;20049;-67
2024/03/30 01:07:30;;;;;;;1.30;0.82;;;;;;;;;;5024573;28;20067;-67
2024/03/30 01:09:57;;;;;;;1.67;0.80;;;;;;;;;;5037689;28;20053;-67
2024/03/30 01:12:24;;;;;;;1.27;0.85;;;;;;;;;;5031304;28;20468;-66
2024/03/30 01:14:52;;;;;;;1.23;0.70;;;;;;;;;;5030362;28;20144;-67
2024/03/30 01:17:18;;;;;;;2.33;0.82;;;;;;;;;;5040360;28;20060;-67
2024/03/30 01:19:47;;;;;;;2.05;0.85;;;;;;;;;;5037060;28;20219;-66
2024/03/30 01:22:14;;;;;;;1.38;0.80;;;;;;;;;;5036503;28;20067;-66
2024/03/30 01:24:41;;;;;;;1.25;0.80;;;;;;;;;;5009812;28;20071;-66
2024/03/30 01:27:09;;;;;;;1.45;0.70;;;;;;;;;;5039228;28;20175;-66
2024/03/30 01:29:37;;;;;;;2.20;0.90;;;;;;;;;;5025027;28;20144;-65
2024/03/30 01:32:03;;;;;;;1.58;0.73;;;;;;;;;;5036264;28;20143;-65
2024/03/30 01:34:31;;;;;;;2.08;1.08;;;;;;;;;;5038574;28;20056;-65
2024/03/30 01:36:58;;;;;;;1.52;0.73;;;;;;;;;;5020467;28;20088;-66
2024/03/30 01:39:25;;;;;;;1.98;0.80;;;;;;;;;;5023335;28;20147;-66
2024/03/30 01:41:51;;;;;;;1.55;0.73;;;;;;;;;;5017948;28;20053;-65
2024/03/30 01:44:17;;;;;;;1.55;0.95;;;;;;;;;;5020339;28;20072;-66
2024/03/30 01:46:44;;;;;;;2.03;0.90;;;;;;;;;;5038099;28;20056;-66
2024/03/30 01:49:11;;;;;;;7.97;2.17;;;;;;;;;;5039559;28;20143;-64
2024/03/30 01:51:37;;;;;;;5.18;1.90;;;;;;;;;;5023844;28;20158;-65
2024/03/30 01:54:08;;;;;;;7.75;3.05;;;;;;;;;;5014800;28;20253;-66
2024/03/30 01:56:34;;;;;;;33.78;12.07;;;;;;;;;;5024761;28;20139;-66
2024/03/30 01:59:03;;;;;;;5.05;2.20;;;;;;;;;;5039793;28;20059;-66
2024/03/30 02:01:29;;;;;;;4.78;1.98;;;;;;;;;;5040251;28;20168;-64
2024/03/30 02:03:57;;;;;;;3.10;1.38;;;;;;;;;;5019291;28;20059;-65
2024/03/30 02:06:26;;;;;;;;;;;;;;;;;;5013752;28;20056;-66
2024/03/30 02:08:54;;;;;;;0.90;0.65;;;;;;;;;;5021917;28;19931;-67
2024/03/30 02:11:21;;;;;;;1.90;0.93;;;;;;;;;;5043112;28;20070;-66
2024/03/30 02:13:48;;;;;;;29.88;15.60;;;;;;;;;;5019031;28;20129;-65
2024/03/30 02:16:14;;;;;;;20.88;10.50;;;;;;;;;;5009736;28;20064;-65
2024/03/30 02:18:40;;;;;;;6.05;2.40;;;;;;;;;;5036826;28;20083;-65
2024/03/30 02:21:06;;;;;;;14.55;6.60;;;;;;;;;;5039534;28;20056;-64
2024/03/30 02:23:34;;;;;;;8.63;2.75;;;;;;;;;;5018983;28;20059;-65
2024/03/30 02:26:00;;;;;;;3.15;1.10;;;;;;;;;;5009704;28;20094;-64
2024/03/30 02:28:28;;;;;;;2.10;1.00;;;;;;;;;;5039172;28;20112;-65
2024/03/30 02:30:54;;;;;;;2.25;1.05;;;;;;;;;;5039820;28;20064;-67
2024/03/30 02:33:21;;;;;;;3.53;0.90;;;;;;;;;;5042051;28;21247;-67
2024/03/30 02:35:48;;;;;;;3.05;1.30;;;;;;;;;;5013102;28;20067;-66
2024/03/30 02:38:15;;;;;;;4.38;2.05;;;;;;;;;;5034971;28;20060;-64
2024/03/30 02:40:48;;;;;;;9.65;4.80;;;;;;;;;;5037943;28;20056;-65
2024/03/30 02:43:14;;;;;;;5.22;2.83;;;;;;;;;;5040615;28;20187;-65
2024/03/30 02:45:40;;;;;;;5.78;1.77;;;;;;;;;;5025607;28;20199;-65
2024/03/30 02:48:06;;;;;;;2.58;1.00;;;;;;;;;;5034240;28;20071;-65
2024/03/30 02:50:33;;;;;;;1.15;0.80;;;;;;;;;;5018793;28;20065;-66
2024/03/30 02:52:59;;;;;;;4.82;0.90;;;;;;;;;;5039024;28;20059;-64
2024/03/30 02:55:25;;;;;;;1.25;0.80;;;;;;;;;;5016312;28;20063;-65
2024/03/30 02:57:53;;;;;;;1.23;0.90;;;;;;;;;;5023625;28;20118;-64
2024/03/30 03:00:20;;;;;;;2.63;0.90;;;;;;;;;;5024255;28;20056;-65
2024/03/30 03:02:45;;;;;;;1.23;0.70;;;;;;;;;;5059478;28;20117;-65
2024/03/30 03:05:12;;;;;;;1.42;0.88;;;;;;;;;;4963655;28;21151;-65
2024/03/30 03:07:38;;;;;;;3.03;1.10;;;;;;;;;;5019407;28;20056;-64
2024/03/30 03:10:05;;;;;;;1.33;0.90;;;;;;;;;;5021330;28;20106;-65
2024/03/30 03:12:31;;;;;;;1.83;1.05;;;;;;;;;;5035501;28;20064;-65
2024/03/30 03:15:02;;;;;;;4.40;1.00;;;;;;;;;;5034116;28;20053;-65
2024/03/30 03:17:27;;;;;;;1.55;0.90;;;;;;;;;;5040169;28;20215;-65
2024/03/30 03:19:54;;;;;;;2.22;1.00;;;;;;;;;;5042982;28;20057;-65
2024/03/30 03:22:20;;;;;;;1.33;0.90;;;;;;;;;;5035606;28;20053;-65
2024/03/30 03:24:46;;;;;;;2.70;1.10;;;;;;;;;;5030070;28;20045;-64
2024/03/30 03:27:12;;;;;;;3.08;1.42;;;;;;;;;;5019161;28;20080;-63
2024/03/30 03:29:40;;;;;;;2.22;1.10;;;;;;;;;;5038085;28;20242;-65
2024/03/30 03:32:07;;;;;;;;;;;;;;;;;;5039336;28;20085;-64
2024/03/30 03:34:34;;;;;;;2.35;1.00;;;;;;;;;;5009284;28;20000;-65
2024/03/30 03:37:00;;;;;;;2.28;1.30;;;;;;;;;;5018763;28;20069;-65
2024/03/30 03:39:26;;;;;;;3.00;1.30;;;;;;;;;;5023503;28;20055;-64
2024/03/30 03:41:52;;;;;;;4.53;1.92;;;;;;;;;;5017531;28;20059;-63
2024/03/30 03:44:19;;;;;;;5.47;1.55;;;;;;;;;;5009207;28;20087;-64
2024/03/30 03:46:44;;;;;;;2.92;1.40;;;;;;;;;;5037192;28;20071;-65
2024/03/30 03:49:12;;;;;;;3.78;1.50;;;;;;;;;;5025096;28;20220;-64
2024/03/30 03:51:38;;;;;;;2.20;1.35;;;;;;;;;;5022164;28;20053;-65
2024/03/30 03:54:04;;;;;;;3.45;1.50;;;;;;;;;;5019704;28;20099;-66
2024/03/30 03:56:30;;;;;;;4.22;1.73;;;;;;;;;;5035295;28;20160;-66
2024/03/30 03:58:57;;;;;;;6.20;1.60;;;;;;;;;;5024572;28;20992;-63
2024/03/30 04:01:23;;;;;;;2.75;1.38;;;;;;;;;;5043202;28;20065;-64
2024/03/30 04:03:51;;;;;;;3.85;1.90;;;;;;;;;;4996137;28;20061;-64
2024/03/30 04:06:18;;;;;;;3.42;1.98;;;;;;;;;;5018964;28;20060;-64
2024/03/30 04:08:47;;;;;;;4.85;1.88;;;;;;;;;;5040724;28;20071;-64
2024/03/30 04:11:12;;;;;;;5.32;1.90;;;;;;;;;;5040618;28;20060;-63
2024/03/30 04:13:39;;;;;;;4.05;1.90;;;;;;;;;;5036874;28;20060;-66
2024/03/30 04:16:06;;;;;;;4.05;1.67;;;;;;;;;;5023166;28;20053;-64
2024/03/30 04:18:33;;;;;;;3.20;1.70;;;;;;;;;;5039156;28;20337;-63
2024/03/30 04:21:00;;;;;;;4.82;2.22;;;;;;;;;;5023408;28;20061;-65
2024/03/30 04:23:31;;;;;;;4.95;2.03;;;;;;;;;;5019909;28;20086;-64
2024/03/30 04:26:04;;;;;;;5.22;2.10;;;;;;;;;;5042092;28;20067;-65
2024/03/30 04:28:31;;;;;;;5.97;2.03;;;;;;;;;;5035202;28;20182;-64
2024/03/30 04:30:57;;;;;;;6.75;2.20;;;;;;;;;;5044434;28;20060;-64
2024/03/30 04:33:24;;;;;;;3.72;1.88;;;;;;;;;;5036779;28;20060;-64
2024/03/30 04:35:57;;;;;;;4.28;2.10;;;;;;;;;;5023210;28;20113;-64
2024/03/30 04:38:25;;;;;;;3.97;2.20;;;;;;;;;;5038566;28;20061;-64
2024/03/30 04:41:00;;;;;;;3.15;1.90;;;;;;;;;;5022965;28;20076;-64
2024/03/30 04:43:26;;;;;;;7.25;1.95;;;;;;;;;;5027592;28;20063;-65
2024/03/30 04:45:53;;;;;;;3.78;1.80;;;;;;;;;;5040370;28;20053;-64
2024/03/30 04:48:22;;;;;;;3.47;1.80;;;;;;;;;;5037536;28;20080;-64
2024/03/30 04:50:49;;;;;;;5.03;2.35;;;;;;;;;;5042342;28;21185;-64
2024/03/30 04:53:17;;;;;;;4.97;2.28;;;;;;;;;;5036933;28;20060;-64
2024/03/30 04:55:51;;;;;;;5.03;2.10;;;;;;;;;;5041711;28;20060;-65
2024/03/30 04:58:20;;;;;;;5.78;2.35;;;;;;;;;;5037916;28;20164;-64
2024/03/30 05:00:46;;;;;;;5.88;2.15;;;;;;;;;;5026215;28;20157;-64
2024/03/30 05:03:12;;;;;;;5.22;1.92;;;;;;;;;;5039661;28;20110;-64
2024/03/30 05:05:39;;;;;;;4.15;2.10;;;;;;;;;;5033133;28;20123;-64
2024/03/30 05:08:05;;;;;;;4.50;2.20;;;;;;;;;;5040260;28;20057;-65
2024/03/30 05:10:32;;;;;;;3.80;2.17;;;;;;;;;;5024432;28;20085;-65
2024/03/30 05:12:58;;;;;;;4.68;2.40;;;;;;;;;;5044570;28;20052;-64
2024/03/30 05:15:26;;;;;;;4.72;2.60;;;;;;;;;;5036922;28;20064;-65
2024/03/30 05:17:52;;;;;;;4.40;2.35;;;;;;;;;;5023111;28;20052;-64
2024/03/30 05:23:03;;;;;;;4.20;2.30;;;;;;;;;;5034112;28;20065;-64
2024/03/30 05:25:28;;;;;;;4.20;2.03;;;;;;;;;;5000917;28;20062;-64
2024/03/30 05:27:55;;;;;;;4.93;2.70;;;;;;;;;;5037702;28;20065;-65
2024/03/30 05:30:20;;;;;;;6.60;3.15;;;;;;;;;;5037201;28;20573;-64
2024/03/30 05:32:50;;;;;;;5.95;2.78;;;;;;;;;;5022238;28;20084;-65
2024/03/30 05:35:16;;;;;;;5.55;2.72;;;;;;;;;;5034424;28;20187;-65
2024/03/30 05:37:45;;;;;;;6.50;2.85;;;;;;;;;;5022737;28;20060;-64
2024/03/30 05:40:11;;;;;;;6.35;2.80;;;;;;;;;;5018452;28;20514;-65
2024/03/30 05:42:38;;;;;;;5.47;2.63;;;;;;;;;;5022287;28;20163;-65
2024/03/30 05:45:06;;;;;;;5.68;2.78;;;;;;;;;;5019090;28;20080;-65
2024/03/30 05:47:32;;;;;;;5.60;2.53;;;;;;;;;;5019404;28;20052;-65
2024/03/30 05:50:00;;;;;;;5.63;2.80;;;;;;;;;;5019598;28;20061;-64
2024/03/30 05:52:27;;;;;;;8.38;3.00;;;;;;;;;;5013770;28;20048;-64
2024/03/30 05:54:53;;;;;;;13.20;2.92;;;;;;;;;;5017886;28;20064;-64
2024/03/30 05:57:19;;;;;;;4.38;2.38;;;;;;;;;;5021813;28;20056;-64
2024/03/30 05:59:45;;;;;;;4.57;2.45;;;;;;;;;;5038822;28;20080;-64
2024/03/30 06:02:14;;;;;;;6.43;3.13;;;;;;;;;;5040079;28;20209;-64
2024/03/30 06:04:40;;;;;;;;;;;;;;;;;;4989030;28;20058;-63
2024/03/30 06:07:09;;;;;;;4.05;1.95;;;;;;;;;;5019120;28;19931;-63
2024/03/30 06:09:37;;;;;;;5.47;2.72;;;;;;;;;;5045475;28;20183;-63
2024/03/30 06:12:05;;;;;;;3.58;1.92;;;;;;;;;;5021732;28;20056;-64
2024/03/30 06:14:30;;;;;;;4.13;2.00;;;;;;;;;;5021028;28;20135;-65
2024/03/30 06:16:59;;;;;;;4.68;2.05;;;;;;;;;;5039714;28;20060;-63
2024/03/30 06:19:25;;;;;;;2.58;1.50;;;;;;;;;;5041247;28;20061;-63
2024/03/30 06:21:53;;;;;;;3.63;1.90;;;;;;;;;;5018579;28;20056;-63
2024/03/30 06:24:20;;;;;;;3.80;1.70;;;;;;;;;;5020874;28;20131;-64
2024/03/30 06:26:47;;;;;;;4.00;1.65;;;;;;;;;;5020261;28;20126;-64
2024/03/30 06:29:12;;;;;;;3.20;1.83;;;;;;;;;;5022391;28;20068;-65
2024/03/30 06:31:39;;;;;;;5.35;1.98;;;;;;;;;;5021894;28;20056;-63
2024/03/30 06:34:05;;;;;;;5.60;1.88;;;;;;;;;;4997322;28;20139;-64
2024/03/30 06:36:32;;;;;;;4.25;2.00;;;;;;;;;;5016732;28;20109;-66
2024/03/30 06:38:59;;;;;;;6.05;2.35;;;;;;;;;;5019932;28;20139;-64
2024/03/30 06:44:11;;;;;;;4.13;2.10;;;;;;;;;;5034793;28;20048;-63
2024/03/30 06:46:38;;;;;;;6.38;2.35;;;;;;;;;;5017374;28;20395;-63
2024/03/30 06:49:04;;;;;;;4.80;2.08;;;;;;;;;;5039981;28;20064;-63
2024/03/30 06:51:31;;;;;;;4.72;2.13;;;;;;;;;;5022708;28;20045;-63
2024/03/30 06:53:58;;;;;;;3.92;1.85;;;;;;;;;;5027098;28;20073;-63
2024/03/30 06:56:24;;;;;;;4.45;2.05;;;;;;;;;;5015952;28;20052;-65
2024/03/30 06:58:52;;;;;;;3.30;1.95;;;;;;;;;;5039278;28;20068;-64
2024/03/30 07:01:17;;;;;;;12.27;5.28;;;;;;;;;;5020910;28;20076;-63
2024/03/30 07:03:44;;;;;;;5.45;2.20;;;;;;;;;;5013396;28;20687;-63
2024/03/30 07:06:10;;;;;;;5.35;2.03;;;;;;;;;;5017752;28;20110;-63
2024/03/30 07:08:37;;;;;;;3.63;1.92;;;;;;;;;;5032330;28;20057;-67
2024/03/30 07:11:03;;;;;;;5.05;2.15;;;;;;;;;;5023972;28;20052;-65
2024/03/30 07:13:29;;;;;;;4.85;2.03;;;;;;;;;;5031329;28;20057;-66
2024/03/30 07:15:57;;;;;;;4.35;2.25;;;;;;;;;;5017492;28;20053;-66
2024/03/30 07:18:24;;;;;;;4.43;1.92;;;;;;;;;;5010619;28;20068;-65
2024/03/30 07:20:49;;;;;;;9.80;2.50;;;;;;;;;;5034810;28;20143;-65
2024/03/30 07:23:16;;;;;;;3.45;1.85;;;;;;;;;;5001070;28;20056;-66
2024/03/30 07:25:44;;;;;;;5.95;2.63;;;;;;;;;;5017830;28;20069;-66
2024/03/30 07:28:10;;;;;;;6.75;2.63;;;;;;;;;;5019858;28;20368;-66
2024/03/30 07:30:37;;;;;;;5.32;2.28;;;;;;;;;;5035622;28;20170;-67
2024/03/30 07:33:05;;;;;;;8.13;3.13;;;;;;;;;;5041509;28;20049;-65
2024/03/30 07:35:33;;;;;;;7.45;2.92;;;;;;;;;;5015927;28;20060;-66
2024/03/30 07:37:58;;;;;;;5.53;2.58;;;;;;;;;;5019962;28;20067;-66
2024/03/30 07:40:28;;;;;;;7.97;2.92;;;;;;;;;;5030074;28;20069;-67
2024/03/30 07:42:53;;;;;;;5.63;2.60;;;;;;;;;;5020697;28;20048;-66
2024/03/30 07:45:20;;;;;;;9.43;2.85;;;;;;;;;;5014970;28;20064;-65
2024/03/30 07:47:46;;;;;;;7.72;3.40;;;;;;;;;;5038346;28;20076;-65
2024/03/30 07:50:18;;;;;;;6.30;2.58;;;;;;;;;;5038594;28;20147;-66
2024/03/30 07:52:49;;;;;;;6.55;3.10;;;;;;;;;;5039674;28;20052;-68
2024/03/30 07:55:16;;;;;;;8.10;3.35;;;;;;;;;;5008389;28;20060;-65
2024/03/30 07:57:42;;;;;;;8.73;3.00;;;;;;;;;;5020580;28;20080;-65
2024/03/30 08:00:14;;;;;;;8.65;3.60;;;;;;;;;;5040204;28;20202;-65
2024/03/30 08:02:40;;;;;;;8.73;3.45;;;;;;;;;;5031367;28;20123;-65
2024/03/30 08:05:14;;;;;;;8.32;3.65;;;;;;;;;;5031151;28;20653;-66
2024/03/30 08:07:40;;;;;;;8.65;3.58;;;;;;;;;;5041778;28;20053;-66
2024/03/30 08:10:07;;;;;;;6.50;3.13;;;;;;;;;;5021447;28;20071;-65
2024/03/30 08:12:33;;;;;;;8.95;3.70;;;;;;;;;;5028546;28;21694;-67
2024/03/30 08:15:00;;;;;;;7.18;3.28;;;;;;;;;;5015148;28;20067;-65
2024/03/30 08:17:25;;;;;;;7.57;3.05;;;;;;;;;;5019258;28;20150;-65
2024/03/30 08:19:52;;;;;;;10.13;3.88;;;;;;;;;;5019197;28;20143;-68
2024/03/30 08:22:19;;;;;;;8.80;3.50;;;;;;;;;;5018171;28;20065;-67
2024/03/30 08:24:46;;;;;;;9.18;3.42;;;;;;;;;;5027059;28;20057;-65
2024/03/30 08:27:12;;;;;;;7.38;3.50;;;;;;;;;;5038386;28;20371;-66
2024/03/30 08:29:38;;;;;;;9.85;3.83;;;;;;;;;;5038216;28;20060;-65
2024/03/30 08:32:04;;;;;;;7.90;3.42;;;;;;;;;;5038960;28;21104;-66
2024/03/30 08:34:31;;;;;;;7.18;3.75;;;;;;;;;;5021552;28;20064;-66
2024/03/30 08:36:57;;;;;;;6.13;2.90;;;;;;;;;;5024655;28;20064;-66
2024/03/30 08:39:26;;;;;;;6.82;3.20;;;;;;;;;;5043170;28;20106;-66
2024/03/30 08:41:51;;;;;;;7.35;3.55;;;;;;;;;;5019172;28;20076;-63
2024/03/30 08:44:21;;;;;;;11.20;4.32;;;;;;;;;;5002242;28;20144;-66
2024/03/30 08:46:47;;;;;;;8.02;4.15;;;;;;;;;;5036918;28;20063;-64
2024/03/30 08:49:13;;;;;;;7.50;3.58;;;;;;;;;;5020896;28;20049;-65
2024/03/30 08:51:39;;;;;;;7.80;3.65;;;;;;;;;;5019093;28;20162;-66
2024/03/30 08:54:06;;;;;;;9.88;3.47;;;;;;;;;;5033035;28;20108;-66
2024/03/30 08:56:33;;;;;;;8.10;3.80;;;;;;;;;;5017751;28;20277;-68
2024/03/30 08:59:00;;;;;;;8.35;3.65;;;;;;;;;;5043250;28;20057;-69
2024/03/30 09:01:28;;;;;;;9.60;4.13;;;;;;;;;;5037780;28;20049;-66
2024/03/30 09:03:55;;;;;;;7.55;3.72;;;;;;;;;;5013779;28;20064;-66
2024/03/30 09:06:22;;;;;;;7.72;3.60;;;;;;;;;;5033604;28;20134;-66
2024/03/30 09:08:49;;;;;;;8.27;3.75;;;;;;;;;;5038386;28;20092;-69
2024/03/30 09:11:17;;;;;;;7.90;3.97;;;;;;;;;;5038620;28;20068;-64
2024/03/30 09:13:46;;;;;;;8.52;3.65;;;;;;;;;;5000262;28;20096;-65
2024/03/30 09:16:12;;;;;;;11.80;4.10;;;;;;;;;;5022664;28;20080;-67
2024/03/30 09:18:38;;;;;;;9.32;4.00;;;;;;;;;;5036056;28;20140;-64
2024/03/30 09:21:05;;;;;;;10.63;3.78;;;;;;;;;;5037923;28;20103;-64
2024/03/30 09:23:33;;;;;;;11.68;4.20;;;;;;;;;;4996019;28;20152;-65
2024/03/30 09:25:59;;;;;;;8.10;3.83;;;;;;;;;;5016746;28;20048;-65
2024/03/30 09:28:26;;;;;;;8.75;3.78;;;;;;;;;;5015279;28;20531;-65
2024/03/30 09:30:53;;;;;;;11.95;4.25;;;;;;;;;;5022401;28;20056;-65
2024/03/30 09:33:20;;;;;;;10.63;4.20;;;;;;;;;;5011947;28;20063;-67
2024/03/30 09:35:46;;;;;;;9.35;3.55;;;;;;;;;;5016082;28;20061;-65
2024/03/30 09:38:12;;;;;;;8.07;3.80;;;;;;;;;;5019049;28;20111;-65
2024/03/30 09:40:46;;;;;;;10.80;4.30;;;;;;;;;;5039239;28;20114;-66
2024/03/30 09:43:13;;;;;;;8.80;4.13;;;;;;;;;;5023176;28;20214;-65
2024/03/30 09:45:40;;;;;;;8.77;3.85;;;;;;;;;;5009197;28;20141;-66
2024/03/30 09:48:09;;;;;;;11.50;4.10;;;;;;;;;;5021494;28;20126;-67
2024/03/30 09:50:35;;;;;;;13.45;3.47;;;;;;;;;;5036210;28;20053;-66
2024/03/30 09:53:05;;;;;;;10.27;4.30;;;;;;;;;;5043966;28;20052;-67
2024/03/30 09:55:33;;;;;;;8.57;3.97;;;;;;;;;;5027263;28;20059;-65
2024/03/30 09:58:01;;;;;;;7.28;3.72;;;;;;;;;;5038238;28;20055;-67
2024/03/30 10:00:31;;;;;;;9.80;4.68;;;;;;;;;;5033184;28;20060;-67
2024/03/30 10:02:57;;;;;;;9.63;4.03;;;;;;;;;;5021010;28;20056;-65
2024/03/30 10:05:25;;;;;;;10.75;3.72;;;;;;;;;;5022563;28;20061;-65
2024/03/30 10:07:57;;;;;;;7.77;3.50;;;;;;;;;;5019473;28;20059;-66
2024/03/30 10:10:23;;;;;;;8.15;3.83;;;;;;;;;;5013468;28;20071;-66
2024/03/30 10:12:53;;;;;;;15.07;3.70;;;;;;;;;;5040033;28;20068;-67
2024/03/30 10:15:27;;;;;;;13.90;4.30;;;;;;;;;;5016662;28;20064;-65
2024/03/30 10:17:54;;;;;;;10.23;3.90;;;;;;;;;;5022564;28;20067;-66
2024/03/30 10:20:21;;;;;;;9.30;3.55;;;;;;;;;;5025259;28;20067;-66
2024/03/30 10:22:51;;;;;;;14.38;3.75;;;;;;;;;;5039608;28;20060;-65
2024/03/30 10:25:18;;;;;;;9.85;3.60;;;;;;;;;;5022616;28;20102;-67
2024/03/30 10:27:46;;;;;;;12.13;3.97;;;;;;;;;;5030967;28;20055;-66
2024/03/30 10:30:13;;;;;;;12.13;3.78;;;;;;;;;;5045783;28;20167;-66
2024/03/30 10:32:41;;;;;;;8.18;3.85;;;;;;;;;;5018066;28;20106;-66
2024/03/30 10:35:07;;;;;;;;;;;;;;;;;;5027820;28;20051;-65
2024/03/30 10:37:35;;;;;;;7.90;3.17;;;;;;;;;;5043567;28;19947;-66
2024/03/30 10:40:05;;;;;;;9.88;3.47;;;;;;;;;;5048690;28;20064;-65
2024/03/30 10:42:32;;;;;;;10.23;3.72;;;;;;;;;;5031044;28;20273;-66
2024/03/30 10:44:58;;;;;;;8.77;3.72;;;;;;;;;;5032757;28;20067;-64
2024/03/30 10:47:25;;;;;;;17.65;3.83;;;;;;;;;;5052867;28;20056;-64
2024/03/30 10:49:51;;;;;;;8.40;3.33;;;;;;;;;;5038248;28;20138;-64
2024/03/30 10:52:18;;;;;;;14.75;3.65;;;;;;;;;;5034844;28;20068;-64
2024/03/30 10:54:47;;;;;;;10.85;3.97;;;;;;;;;;5016526;28;20083;-64
2024/03/30 10:57:17;;;;;;;12.88;3.70;;;;;;;;;;5025294;28;20044;-63
2024/03/30 10:59:45;;;;;;;10.45;3.08;;;;;;;;;;5042998;28;20063;-64
2024/03/30 11:02:18;;;;;;;;;;;;;;;;;;5035967;28;20060;-64
2024/03/30 11:04:44;;;;;;;14.30;3.53;;;;;;;;;;5013602;28;19924;-63
2024/03/30 11:07:14;;;;;;;14.77;3.33;;;;;;;;;;5052630;28;20143;-64
2024/03/30 11:09:41;;;;;;;13.90;4.00;;;;;;;;;;5035332;28;20059;-64
2024/03/30 11:12:10;;;;;;;18.57;3.77;;;;;;;;;;5049156;28;20064;-63
2024/03/30 11:14:38;;;;;;;13.00;4.00;;;;;;;;;;5040998;28;20705;-65
2024/03/30 11:17:14;;;;;;;10.23;3.10;;;;;;;;;;5054220;28;20071;-63
2024/03/30 11:19:46;;;;;;;9.15;3.63;;;;;;;;;;5039684;28;20056;-65
2024/03/30 11:22:21;;;;;;;25.63;3.50;;;;;;;;;;5030120;28;20066;-64
2024/03/30 11:24:59;;;;;;;14.25;3.75;;;;;;;;;;5009761;28;20103;-63
2024/03/30 11:27:32;;;;;;;24.00;3.97;;;;;;;;;;5045930;28;20052;-63
2024/03/30 11:30:03;;;;;;;16.17;3.30;;;;;;;;;;5049900;28;20060;-63
2024/03/30 11:32:35;;;;;;;23.85;3.75;;;;;;;;;;5040681;28;20168;-63
2024/03/30 11:35:10;;;;;;;15.45;3.53;;;;;;;;;;5020966;28;20138;-63
2024/03/30 11:37:42;;;;;;;20.33;4.90;;;;;;;;;;5050342;28;20166;-63
2024/03/30 11:40:20;;;;;;;22.10;4.20;;;;;;;;;;5052331;28;20052;-63
2024/03/30 11:42:53;;;;;;;18.48;3.65;;;;;;;;;;5038134;28;20056;-63
2024/03/30 11:45:24;;;;;;;18.15;3.78;;;;;;;;;;5020099;28;20053;-64
2024/03/30 11:47:51;;;;;;;18.13;4.72;;;;;;;;;;5049798;28;20139;-64
2024/03/30 11:50:17;;;;;;;17.38;4.45;;;;;;;;;;5033943;28;20064;-64
2024/03/30 11:52:45;;;;;;;16.08;4.20;;;;;;;;;;5035495;28;20078;-63
2024/03/30 11:55:11;;;;;;;17.92;4.03;;;;;;;;;;5015355;28;20067;-64
2024/03/30 11:57:38;;;;;;;15.27;4.10;;;;;;;;;;5052696;28;20060;-63
2024/03/30 12:00:05;;;;;;;32.40;4.95;;;;;;;;;;5038465;28;20084;-64
2024/03/30 12:02:35;;;;;;;20.02;4.43;;;;;;;;;;5032030;28;20044;-63
2024/03/30 12:05:02;;;;;;;28.45;5.13;;;;;;;;;;5033845;28;20068;-63
2024/03/30 12:07:34;;;;;;;19.10;4.38;;;;;;;;;;5037883;28;20049;-63
2024/03/30 12:10:04;;;;;;;16.73;3.10;;;;;;;;;;5029182;28;20080;-63
2024/03/30 12:12:31;;;;;;;31.20;3.53;;;;;;;;;;5033553;28;20091;-63
2024/03/30 12:14:58;;;;;;;24.23;3.53;;;;;;;;;;5054677;28;20051;-63
2024/03/30 12:17:26;;;;;;;18.25;3.15;;;;;;;;;;5038548;28;20071;-64
2024/03/30 12:19:56;;;;;;;18.58;3.25;;;;;;;;;;5039010;28;20114;-63
2024/03/30 12:22:28;;;;;;;10.75;3.08;;;;;;;;;;5039934;28;20068;-66
2024/03/30 12:24:55;;;;;;;15.68;3.33;;;;;;;;;;5007341;28;20048;-64
2024/03/30 12:27:24;;;;;;;14.00;3.45;;;;;;;;;;5042359;28;20049;-64
2024/03/30 12:29:49;;;;;;;26.83;5.88;;;;;;;;;;5020744;28;20044;-64
2024/03/30 12:32:21;;;;;;;22.42;4.75;;;;;;;;;;5039514;28;20063;-64
2024/03/30 12:34:47;;;;;;;17.70;3.80;;;;;;;;;;5014837;28;20052;-66
2024/03/30 12:37:20;;;;;;;17.77;3.90;;;;;;;;;;5029517;28;20427;-65
2024/03/30 12:39:45;;;;;;;13.60;3.45;;;;;;;;;;5023925;28;20072;-64
2024/03/30 12:42:12;;;;;;;13.73;3.08;;;;;;;;;;5041878;28;20061;-64
2024/03/30 12:44:38;;;;;;;12.75;3.47;;;;;;;;;;5032652;28;21084;-64
2024/03/30 12:47:07;;;;;;;8.98;2.85;;;;;;;;;;5040423;28;20139;-64
2024/03/30 12:49:34;;;;;;;14.52;3.13;;;;;;;;;;5044575;28;20065;-65
2024/03/30 12:52:01;;;;;;;16.48;3.67;;;;;;;;;;5042693;28;20064;-64
2024/03/30 12:54:30;;;;;;;14.52;3.97;;;;;;;;;;5009186;28;20431;-67
2024/03/30 12:56:57;;;;;;;12.43;4.05;;;;;;;;;;5023876;28;20053;-65
2024/03/30 12:59:23;;;;;;;17.05;5.13;;;;;;;;;;5037979;28;20056;-64
2024/03/30 13:01:51;;;;;;;13.18;5.00;;;;;;;;;;5023591;28;20061;-67
2024/03/30 13:04:20;;;;;;;8.38;3.63;;;;;;;;;;5016786;28;20101;-65
2024/03/30 13:06:47;;;;;;;14.27;5.03;;;;;;;;;;5040797;28;20202;-66
2024/03/30 13:09:20;;;;;;;20.67;7.18;;;;;;;;;;5022000;28;20069;-65
2024/03/30 13:11:48;;;;;;;13.38;4.40;;;;;;;;;;5044218;28;20053;-65
2024/03/30 13:14:20;;;;;;;;;;;;;;;;;;5017926;28;20066;-66
2024/03/30 13:16:46;;;;;;;11.27;4.57;;;;;;;;;;5021823;28;19929;-64
2024/03/30 13:19:14;;;;;;;16.70;4.65;;;;;;;;;;5018705;28;20053;-66
2024/03/30 13:21:40;;;;;;;11.55;5.30;;;;;;;;;;5022583;28;20045;-63
2024/03/30 13:24:07;;;;;;;16.13;5.70;;;;;;;;;;5026670;28;20084;-67
2024/03/30 13:26:34;;;;;;;14.07;5.30;;;;;;;;;;5017126;28;20113;-62
2024/03/30 13:29:02;;;;;;;15.25;5.70;;;;;;;;;;5037630;28;20073;-64
2024/03/30 13:31:29;;;;;;;14.82;6.20;;;;;;;;;;5020190;28;20058;-64
2024/03/30 13:33:55;;;;;;;17.25;7.32;;;;;;;;;;5033187;28;20064;-65
2024/03/30 13:36:22;;;;;;;11.65;5.93;;;;;;;;;;5034215;28;20341;-66
2024/03/30 13:38:48;;;;;;;20.70;7.55;;;;;;;;;;5039930;28;20148;-64
2024/03/30 13:41:14;;;;;;;12.60;6.20;;;;;;;;;;5019867;28;20052;-66
2024/03/30 13:43:41;;;;;;;14.88;6.47;;;;;;;;;;4998534;28;20546;-66
2024/03/30 13:46:12;;;;;;;21.75;10.27;;;;;;;;;;5022349;28;20149;-64
2024/03/30 13:48:38;;;;;;;15.13;7.55;;;;;;;;;;5041869;28;20057;-67
2024/03/30 13:51:05;;;;;;;10.32;5.13;;;;;;;;;;5021387;28;20060;-65
2024/03/30 13:53:31;;;;;;;12.90;6.50;;;;;;;;;;5006574;28;20061;-66
2024/03/30 13:55:58;;;;;;;12.63;5.60;;;;;;;;;;5015480;28;20060;-66
2024/03/30 13:58:25;;;;;;;12.48;5.82;;;;;;;;;;5014003;28;20053;-65
2024/03/30 14:00:54;;;;;;;14.02;5.63;;;;;;;;;;5023202;28;20060;-67
2024/03/30 14:03:22;;;;;;;11.80;5.07;;;;;;;;;;5039307;28;20135;-65
2024/03/30 14:05:49;;;;;;;11.85;5.10;;;;;;;;;;4988055;28;20063;-65
2024/03/30 14:08:22;;;;;;;10.32;4.90;;;;;;;;;;5019121;28;20056;-65
2024/03/30 14:10:48;;;;;;;8.63;4.20;;;;;;;;;;5018223;28;20206;-65
2024/03/30 14:13:14;;;;;;;7.53;3.67;;;;;;;;;;5038837;28;20063;-65
2024/03/30 14:15:41;;;;;;;7.22;3.60;;;;;;;;;;5005394;28;21087;-65
2024/03/30 14:18:07;;;;;;;6.60;3.25;;;;;;;;;;5017817;28;20281;-65
2024/03/30 14:20:35;;;;;;;11.57;5.38;;;;;;;;;;5014291;28;20066;-67
2024/03/30 14:23:01;;;;;;;8.18;4.30;;;;;;;;;;5020230;28;20114;-65
2024/03/30 14:25:28;;;;;;;15.50;7.05;;;;;;;;;;5038154;28;20061;-65
2024/03/30 14:27:53;;;;;;;7.90;3.80;;;;;;;;;;5039626;28;20060;-65
2024/03/30 14:30:22;;;;;;;9.90;4.88;;;;;;;;;;5035083;28;20167;-66
2024/03/30 14:32:47;;;;;;;6.65;3.50;;;;;;;;;;5041904;28;20139;-65
2024/03/30 14:35:18;;;;;;;5.20;2.88;;;;;;;;;;5001631;28;20127;-64
2024/03/30 14:37:47;;;;;;;6.18;3.33;;;;;;;;;;5017382;28;20060;-66
2024/03/30 14:40:14;;;;;;;6.57;3.10;;;;;;;;;;5018321;28;20048;-63
2024/03/30 14:42:40;;;;;;;6.50;3.15;;;;;;;;;;5017248;28;20359;-64
2024/03/30 14:45:09;;;;;;;6.57;3.05;;;;;;;;;;5004230;28;20114;-64
2024/03/30 14:47:37;;;;;;;6.70;3.22;;;;;;;;;;5021178;28;20064;-63